sensor_id;sensor_type;location;lat;lon;timestamp;pressure;altitude;pressure_sealevel;temperature;humidity
7182;BME280;3632;42.724;23.298;2024-01-11T00:02:00;96409.47;;;-4.00;80.76
7182;BME280;3632;42.724;23.298;2024-01-11T00:04:28;96356.34;;;-3.98;81.25
7182;BME280;3632;42.724;23.298;2024-01-11T00:06:55;96426.06;;;-4.02;82.15
7182;BME280;3632;42.724;23.298;2024-01-11T00:09:22;96387.00;;;-3.88;82.19
7182;BME280;3632;42.724;23.298;2024-01-11T00:11:48;96263.81;;;-4.91;82.95
7182;BME280;3632;42.724;23.298;2024-01-11T00:14:15;95965.44;;;-6.66;82.70
7182;BME280;3632;42.724;23.298;2024-01-11T00:16:42;95576.09;;;-9.63;83.58
7182;BME280;3632;42.724;23.298;2024-01-11T00:19:09;96385.56;;;-4.50;85.32
7182;BME280;3632;42.724;23.298;2024-01-11T00:21:37;96381.44;;;-4.55;84.97
7182;BME280;3632;42.724;23.298;2024-01-11T00:24:04;96305.25;;;-5.08;84.47
7182;BME280;3632;42.724;23.298;2024-01-11T00:26:31;96454.38;;;-4.49;84.10
7182;BME280;3632;42.724;23.298;2024-01-11T00:28:58;96345.00;;;-4.85;84.37
7182;BME280;3632;42.724;23.298;2024-01-11T00:31:24;96378.97;;;-4.75;84.77
7182;BME280;3632;42.724;23.298;2024-01-11T00:33:52;96187.00;;;-6.05;86.20
7182;BME280;3632;42.724;23.298;2024-01-11T00:36:19;96412.16;;;-4.97;87.23
7182;BME280;3632;42.724;23.298;2024-01-11T00:38:47;96383.13;;;-4.86;87.30
7182;BME280;3632;42.724;23.298;2024-01-11T00:41:14;96372.28;;;-4.49;85.74
7182;BME280;3632;42.724;23.298;2024-01-11T00:43:41;96234.91;;;-5.36;86.57
7182;BME280;3632;42.724;23.298;2024-01-11T00:46:07;96368.16;;;-4.57;86.43
7182;BME280;3632;42.724;23.298;2024-01-11T00:48:34;96333.25;;;-6.47;85.84
7182;BME280;3632;42.724;23.298;2024-01-11T00:51:01;96372.38;;;-4.97;86.64
7182;BME280;3632;42.724;23.298;2024-01-11T00:53:28;96364.06;;;-5.09;86.48
7182;BME280;3632;42.724;23.298;2024-01-11T00:55:57;96241.59;;;-5.92;87.22
7182;BME280;3632;42.724;23.298;2024-01-11T00:58:24;96370.72;;;-5.33;87.87
7182;BME280;3632;42.724;23.298;2024-01-11T01:00:51;96369.88;;;-5.47;87.74
7182;BME280;3632;42.724;23.298;2024-01-11T01:03:19;96364.06;;;-5.42;88.26
7182;BME280;3632;42.724;23.298;2024-01-11T01:05:46;96393.09;;;-5.03;87.97
7182;BME280;3632;42.724;23.298;2024-01-11T01:08:13;95943.09;;;-7.67;87.28
7182;BME280;3632;42.724;23.298;2024-01-11T01:10:39;96192.75;;;-6.37;87.26
7182;BME280;3632;42.724;23.298;2024-01-11T01:13:08;96355.78;;;-5.00;87.58
7182;BME280;3632;42.724;23.298;2024-01-11T01:15:34;96105.13;;;-6.42;87.28
7182;BME280;3632;42.724;23.298;2024-01-11T01:18:01;96359.13;;;-5.05;87.46
7182;BME280;3632;42.724;23.298;2024-01-11T01:20:28;96365.75;;;-5.01;86.95
7182;BME280;3632;42.724;23.298;2024-01-11T01:22:55;96363.25;;;-4.80;86.73
7182;BME280;3632;42.724;23.298;2024-01-11T01:25:21;96360.66;;;-4.38;85.08
7182;BME280;3632;42.724;23.298;2024-01-11T01:27:48;96350.59;;;-4.07;82.37
7182;BME280;3632;42.724;23.298;2024-01-11T01:30:16;96351.31;;;-3.87;80.88
7182;BME280;3632;42.724;23.298;2024-01-11T01:32:43;96337.28;;;-4.00;80.13
7182;BME280;3632;42.724;23.298;2024-01-11T01:35:10;96347.94;;;-3.82;79.57
7182;BME280;3632;42.724;23.298;2024-01-11T01:37:36;96432.81;;;-4.44;81.28
7182;BME280;3632;42.724;23.298;2024-01-11T01:40:04;96204.25;;;-5.23;82.66
7182;BME280;3632;42.724;23.298;2024-01-11T01:42:32;96347.41;;;-4.52;83.61
7182;BME280;3632;42.724;23.298;2024-01-11T01:44:59;96036.50;;;-6.24;83.24
7182;BME280;3632;42.724;23.298;2024-01-11T01:47:28;96326.47;;;-4.02;82.25
7182;BME280;3632;42.724;23.298;2024-01-11T01:49:55;96326.69;;;-4.51;81.68
7182;BME280;3632;42.724;23.298;2024-01-11T01:52:22;96329.22;;;-4.69;83.63
7182;BME280;3632;42.724;23.298;2024-01-11T01:54:50;96335.03;;;-4.69;84.04
7182;BME280;3632;42.724;23.298;2024-01-11T01:57:18;96330.94;;;-5.04;83.90
7182;BME280;3632;42.724;23.298;2024-01-11T01:59:49;96329.31;;;-5.15;84.98
7182;BME280;3632;42.724;23.298;2024-01-11T02:02:19;96293.69;;;-5.73;85.71
7182;BME280;3632;42.724;23.298;2024-01-11T02:04:47;96316.88;;;-5.46;86.10
7182;BME280;3632;42.724;23.298;2024-01-11T02:07:15;96247.31;;;-6.19;86.28
7182;BME280;3632;42.724;23.298;2024-01-11T02:09:43;96317.69;;;-5.43;87.46
7182;BME280;3632;42.724;23.298;2024-01-11T02:12:10;96309.44;;;-5.54;87.49
7182;BME280;3632;42.724;23.298;2024-01-11T02:14:38;96313.56;;;-5.67;87.86
7182;BME280;3632;42.724;23.298;2024-01-11T02:17:05;96282.66;;;-6.82;88.36
7182;BME280;3632;42.724;23.298;2024-01-11T02:19:32;96254.81;;;-5.93;87.64
7182;BME280;3632;42.724;23.298;2024-01-11T02:22:05;96220.03;;;-6.27;88.27
7182;BME280;3632;42.724;23.298;2024-01-11T02:24:33;96315.22;;;-5.75;88.95
7182;BME280;3632;42.724;23.298;2024-01-11T02:27:02;96054.06;;;-8.43;88.65
7182;BME280;3632;42.724;23.298;2024-01-11T02:29:30;96316.88;;;-5.92;90.06
7182;BME280;3632;42.724;23.298;2024-01-11T02:31:59;96087.63;;;-7.17;89.59
7182;BME280;3632;42.724;23.298;2024-01-11T02:34:27;96317.69;;;-5.67;88.73
7182;BME280;3632;42.724;23.298;2024-01-11T02:36:54;96319.38;;;-5.66;88.56
7182;BME280;3632;42.724;23.298;2024-01-11T02:39:23;96057.09;;;-7.22;88.36
7182;BME280;3632;42.724;23.298;2024-01-11T02:41:55;96310.28;;;-5.49;88.32
7182;BME280;3632;42.724;23.298;2024-01-11T02:44:22;96262.25;;;-5.78;87.76
7182;BME280;3632;42.724;23.298;2024-01-11T02:46:49;96347.50;;;-5.58;88.67
7182;BME280;3632;42.724;23.298;2024-01-11T02:49:16;96313.56;;;-5.58;88.64
7182;BME280;3632;42.724;23.298;2024-01-11T02:51:43;96275.50;;;-5.73;88.73
7182;BME280;3632;42.724;23.298;2024-01-11T02:54:10;96301.16;;;-5.50;88.63
7182;BME280;3632;42.724;23.298;2024-01-11T02:56:37;95909.13;;;-8.18;88.22
7182;BME280;3632;42.724;23.298;2024-01-11T02:59:05;96177.91;;;-6.24;88.40
7182;BME280;3632;42.724;23.298;2024-01-11T03:01:32;96296.19;;;-5.48;88.12
7182;BME280;3632;42.724;23.298;2024-01-11T03:03:59;96283.75;;;-5.83;88.61
7182;BME280;3632;42.724;23.298;2024-01-11T03:06:26;96300.31;;;-5.78;89.75
7182;BME280;3632;42.724;23.298;2024-01-11T03:08:53;96304.47;;;-5.81;89.18
7182;BME280;3632;42.724;23.298;2024-01-11T03:11:19;96170.38;;;-6.60;89.75
7182;BME280;3632;42.724;23.298;2024-01-11T03:13:46;96230.78;;;-6.31;89.51
7182;BME280;3632;42.724;23.298;2024-01-11T03:16:14;96295.34;;;-5.75;89.20
7182;BME280;3632;42.724;23.298;2024-01-11T03:18:41;96325.06;;;-6.22;89.51
7182;BME280;3632;42.724;23.298;2024-01-11T03:21:08;96295.38;;;-5.90;90.04
7182;BME280;3632;42.724;23.298;2024-01-11T03:23:35;96295.38;;;-5.91;89.45
7182;BME280;3632;42.724;23.298;2024-01-11T03:26:01;96297.84;;;-5.91;89.87
7182;BME280;3632;42.724;23.298;2024-01-11T03:28:28;96293.69;;;-5.76;89.45
7182;BME280;3632;42.724;23.298;2024-01-11T03:30:55;96297.81;;;-5.84;88.30
7182;BME280;3632;42.724;23.298;2024-01-11T03:33:23;96301.16;;;-5.89;89.24
7182;BME280;3632;42.724;23.298;2024-01-11T03:35:50;96212.63;;;-5.96;88.26
7182;BME280;3632;42.724;23.298;2024-01-11T03:38:17;96286.25;;;-5.50;87.99
7182;BME280;3632;42.724;23.298;2024-01-11T03:40:43;96277.16;;;-5.48;87.16
7182;BME280;3632;42.724;23.298;2024-01-11T03:43:10;96062.97;;;-6.71;86.39
7182;BME280;3632;42.724;23.298;2024-01-11T03:45:37;96277.97;;;-5.32;85.74
7182;BME280;3632;42.724;23.298;2024-01-11T03:48:04;96281.28;;;-5.18;85.99
7182;BME280;3632;42.724;23.298;2024-01-11T03:50:32;96286.22;;;-5.30;85.31
7182;BME280;3632;42.724;23.298;2024-01-11T03:52:59;96281.28;;;-5.53;84.72
7182;BME280;3632;42.724;23.298;2024-01-11T03:55:26;96271.34;;;-5.27;85.03
7182;BME280;3632;42.724;23.298;2024-01-11T03:57:53;96279.56;;;-4.90;84.44
7182;BME280;3632;42.724;23.298;2024-01-11T04:00:20;96093.50;;;-5.89;82.09
7182;BME280;3632;42.724;23.298;2024-01-11T04:02:46;96269.50;;;-4.55;80.85
7182;BME280;3632;42.724;23.298;2024-01-11T04:05:13;96113.19;;;-5.33;79.56
7182;BME280;3632;42.724;23.298;2024-01-11T04:07:42;96259.47;;;-4.40;79.86
7182;BME280;3632;42.724;23.298;2024-01-11T04:10:09;96265.28;;;-4.38;78.80
7182;BME280;3632;42.724;23.298;2024-01-11T04:12:36;96291.00;;;-4.42;78.70
7182;BME280;3632;42.724;23.298;2024-01-11T04:15:03;96104.88;;;-5.29;78.39
7182;BME280;3632;42.724;23.298;2024-01-11T04:17:30;95931.63;;;-7.11;80.64
7182;BME280;3632;42.724;23.298;2024-01-11T04:19:57;96260.59;;;-5.47;82.07
7182;BME280;3632;42.724;23.298;2024-01-11T04:22:24;96260.59;;;-5.78;85.01
7182;BME280;3632;42.724;23.298;2024-01-11T04:24:52;96263.09;;;-5.93;86.31
7182;BME280;3632;42.724;23.298;2024-01-11T04:27:19;96260.59;;;-5.79;87.24
7182;BME280;3632;42.724;23.298;2024-01-11T04:29:45;96046.94;;;-7.84;86.47
7182;BME280;3632;42.724;23.298;2024-01-11T04:32:12;96258.13;;;-5.79;86.46
7182;BME280;3632;42.724;23.298;2024-01-11T04:34:39;96167.13;;;-6.45;86.84
7182;BME280;3632;42.724;23.298;2024-01-11T04:37:06;96269.72;;;-5.87;87.38
7182;BME280;3632;42.724;23.298;2024-01-11T04:39:33;96268.03;;;-6.05;88.03
7182;BME280;3632;42.724;23.298;2024-01-11T04:42:02;96169.47;;;-6.86;88.03
7182;BME280;3632;42.724;23.298;2024-01-11T04:44:29;96229.03;;;-6.61;88.25
7182;BME280;3632;42.724;23.298;2024-01-11T04:46:55;96266.41;;;-6.03;89.22
7182;BME280;3632;42.724;23.298;2024-01-11T04:49:22;96306.88;;;-6.18;88.82
7182;BME280;3632;42.724;23.298;2024-01-11T04:51:49;96271.38;;;-5.86;87.93
7182;BME280;3632;42.724;23.298;2024-01-11T04:54:16;96259.78;;;-5.81;87.09
7182;BME280;3632;42.724;23.298;2024-01-11T04:56:42;96271.34;;;-5.74;86.87
7182;BME280;3632;42.724;23.298;2024-01-11T04:59:11;96259.75;;;-5.51;85.44
7182;BME280;3632;42.724;23.298;2024-01-11T05:01:38;96180.31;;;-5.63;83.86
7182;BME280;3632;42.724;23.298;2024-01-11T05:04:06;96249.78;;;-5.05;82.45
7182;BME280;3632;42.724;23.298;2024-01-11T05:06:33;96276.19;;;-4.74;81.01
7182;BME280;3632;42.724;23.298;2024-01-11T05:08:59;96294.44;;;-4.72;80.85
7182;BME280;3632;42.724;23.298;2024-01-11T05:11:26;96244.91;;;-5.96;81.52
7182;BME280;3632;42.724;23.298;2024-01-11T05:13:53;96167.97;;;-6.03;83.04
7182;BME280;3632;42.724;23.298;2024-01-11T05:16:23;96267.22;;;-5.27;83.00
7182;BME280;3632;42.724;23.298;2024-01-11T05:18:50;96265.50;;;-4.97;82.50
7182;BME280;3632;42.724;23.298;2024-01-11T05:21:17;96261.28;;;-4.82;81.80
7182;BME280;3632;42.724;23.298;2024-01-11T05:23:44;96251.47;;;-5.38;82.32
7182;BME280;3632;42.724;23.298;2024-01-11T05:26:12;96258.09;;;-5.46;83.14
7182;BME280;3632;42.724;23.298;2024-01-11T05:28:39;96288.75;;;-5.92;83.96
7182;BME280;3632;42.724;23.298;2024-01-11T05:31:08;96203.50;;;-6.41;84.77
7182;BME280;3632;42.724;23.298;2024-01-11T05:33:36;96152.91;;;-7.00;85.37
7182;BME280;3632;42.724;23.298;2024-01-11T05:36:04;96354.91;;;-5.97;86.43
7182;BME280;3632;42.724;23.298;2024-01-11T05:38:31;96051.38;;;-6.78;86.08
7182;BME280;3632;42.724;23.298;2024-01-11T05:40:58;96234.16;;;-5.95;85.89
7182;BME280;3632;42.724;23.298;2024-01-11T05:43:25;96138.19;;;-6.12;85.22
7182;BME280;3632;42.724;23.298;2024-01-11T05:45:52;96234.97;;;-5.81;85.50
7182;BME280;3632;42.724;23.298;2024-01-11T05:48:18;96149.72;;;-6.56;87.23
7182;BME280;3632;42.724;23.298;2024-01-11T05:50:47;96239.91;;;-5.77;87.35
7182;BME280;3632;42.724;23.298;2024-01-11T05:53:14;96014.72;;;-8.01;86.88
7182;BME280;3632;42.724;23.298;2024-01-11T05:55:40;95702.25;;;-8.60;85.96
7182;BME280;3632;42.724;23.298;2024-01-11T05:58:07;96154.69;;;-5.80;86.01
7182;BME280;3632;42.724;23.298;2024-01-11T06:00:34;96220.03;;;-5.53;86.24
7182;BME280;3632;42.724;23.298;2024-01-11T06:03:01;96225.84;;;-5.54;86.16
7182;BME280;3632;42.724;23.298;2024-01-11T06:05:28;96230.78;;;-5.63;86.15
7182;BME280;3632;42.724;23.298;2024-01-11T06:07:56;96226.66;;;-5.59;85.78
7182;BME280;3632;42.724;23.298;2024-01-11T06:10:22;96234.94;;;-5.54;85.40
7182;BME280;3632;42.724;23.298;2024-01-11T06:12:49;96152.25;;;-6.03;86.02
7182;BME280;3632;42.724;23.298;2024-01-11T06:15:16;96120.84;;;-6.12;86.07
7182;BME280;3632;42.724;23.298;2024-01-11T06:17:43;96249.84;;;-5.43;85.74
7182;BME280;3632;42.724;23.298;2024-01-11T06:20:10;95446.84;;;-10.29;84.63
7182;BME280;3632;42.724;23.298;2024-01-11T06:22:37;96223.34;;;-5.52;85.76
7182;BME280;3632;42.724;23.298;2024-01-11T06:25:06;95894.44;;;-7.74;85.71
7182;BME280;3632;42.724;23.298;2024-01-11T06:27:33;96239.06;;;-5.59;86.55
7182;BME280;3632;42.724;23.298;2024-01-11T06:29:59;96216.69;;;-5.52;86.50
7182;BME280;3632;42.724;23.298;2024-01-11T06:32:26;95898.59;;;-7.48;85.60
7182;BME280;3632;42.724;23.298;2024-01-11T06:34:53;96212.59;;;-5.59;86.20
7182;BME280;3632;42.724;23.298;2024-01-11T06:37:20;95692.31;;;-8.92;86.33
7182;BME280;3632;42.724;23.298;2024-01-11T06:39:48;96208.41;;;-5.41;86.31
7182;BME280;3632;42.724;23.298;2024-01-11T06:42:16;95591.88;;;-9.05;85.17
7182;BME280;3632;42.724;23.298;2024-01-11T06:44:42;96200.94;;;-5.28;85.89
7182;BME280;3632;42.724;23.298;2024-01-11T06:47:09;95844.13;;;-7.73;85.31
7182;BME280;3632;42.724;23.298;2024-01-11T06:49:38;96196.63;;;-4.77;84.40
7182;BME280;3632;42.724;23.298;2024-01-11T06:52:05;96114.03;;;-5.37;83.57
7182;BME280;3632;42.724;23.298;2024-01-11T06:54:32;96141.25;;;-5.11;83.45
7182;BME280;3632;42.724;23.298;2024-01-11T06:56:59;96042.06;;;-5.49;82.76
7182;BME280;3632;42.724;23.298;2024-01-11T06:59:27;96231.31;;;-4.47;82.50
7182;BME280;3632;42.724;23.298;2024-01-11T07:01:53;95953.75;;;-6.05;82.32
7182;BME280;3632;42.724;23.298;2024-01-11T07:04:20;96201.38;;;-4.35;82.56
7182;BME280;3632;42.724;23.298;2024-01-11T07:06:47;96200.50;;;-4.20;82.68
7182;BME280;3632;42.724;23.298;2024-01-11T07:09:14;96199.50;;;-3.99;81.54
7182;BME280;3632;42.724;23.298;2024-01-11T07:11:42;96210.97;;;-3.79;81.25
7182;BME280;3632;42.724;23.298;2024-01-11T07:14:09;96195.78;;;-3.48;81.18
7182;BME280;3632;42.724;23.298;2024-01-11T07:16:37;96190.75;;;-3.44;80.56
7182;BME280;3632;42.724;23.298;2024-01-11T07:19:04;95973.16;;;-5.14;79.63
7182;BME280;3632;42.724;23.298;2024-01-11T07:21:31;96192.25;;;-3.29;79.39
7182;BME280;3632;42.724;23.298;2024-01-11T07:23:58;96138.66;;;-3.71;79.10
7182;BME280;3632;42.724;23.298;2024-01-11T07:26:25;96241.25;;;-3.30;78.01
7182;BME280;3632;42.724;23.298;2024-01-11T07:28:52;96195.44;;;-3.18;77.46
7182;BME280;3632;42.724;23.298;2024-01-11T07:31:21;96221.75;;;-2.91;77.21
7182;BME280;3632;42.724;23.298;2024-01-11T07:33:49;96082.47;;;-3.22;76.09
7182;BME280;3632;42.724;23.298;2024-01-11T07:36:16;96218.66;;;-2.41;74.00
7182;BME280;3632;42.724;23.298;2024-01-11T07:38:43;96195.97;;;-2.24;72.92
7182;BME280;3632;42.724;23.298;2024-01-11T07:41:10;96026.28;;;-3.44;72.52
7182;BME280;3632;42.724;23.298;2024-01-11T07:43:37;96076.25;;;-2.89;71.83
7182;BME280;3632;42.724;23.298;2024-01-11T07:46:04;96185.91;;;-2.18;71.12
7182;BME280;3632;42.724;23.298;2024-01-11T07:48:32;96269.84;;;-2.08;71.22
7182;BME280;3632;42.724;23.298;2024-01-11T07:51:01;95952.38;;;-4.15;70.30
7182;BME280;3632;42.724;23.298;2024-01-11T07:53:27;96182.47;;;-1.58;69.49
7182;BME280;3632;42.724;23.298;2024-01-11T07:55:54;96177.53;;;-1.62;69.47
7182;BME280;3632;42.724;23.298;2024-01-11T07:58:21;96144.47;;;-1.78;69.27
7182;BME280;3632;42.724;23.298;2024-01-11T08:00:48;96172.84;;;-1.80;70.42
7182;BME280;3632;42.724;23.298;2024-01-11T08:03:15;96172.91;;;-1.85;70.26
7182;BME280;3632;42.724;23.298;2024-01-11T08:05:42;96104.78;;;-1.95;69.17
7182;BME280;3632;42.724;23.298;2024-01-11T08:08:11;96167.91;;;-1.85;69.21
7182;BME280;3632;42.724;23.298;2024-01-11T08:10:37;96193.47;;;-1.69;69.00
7182;BME280;3632;42.724;23.298;2024-01-11T08:13:04;96014.72;;;-2.35;69.61
7182;BME280;3632;42.724;23.298;2024-01-11T08:15:31;96119.69;;;-1.43;68.92
7182;BME280;3632;42.724;23.298;2024-01-11T08:17:58;95878.47;;;-4.10;68.96
7182;BME280;3632;42.724;23.298;2024-01-11T08:20:25;96034.63;;;-3.48;70.11
7182;BME280;3632;42.724;23.298;2024-01-11T08:22:53;96061.78;;;-2.64;71.37
7182;BME280;3632;42.724;23.298;2024-01-11T08:25:21;95876.56;;;-3.30;69.85
7182;BME280;3632;42.724;23.298;2024-01-11T08:27:48;95860.25;;;-3.49;69.48
7182;BME280;3632;42.724;23.298;2024-01-11T08:30:15;96150.13;;;-1.19;68.19
7182;BME280;3632;42.724;23.298;2024-01-11T08:32:42;96059.25;;;-1.63;67.96
7182;BME280;3632;42.724;23.298;2024-01-11T08:35:11;95753.22;;;-4.10;66.12
7182;BME280;3632;42.724;23.298;2024-01-11T08:37:38;96152.16;;;-0.95;68.52
7182;BME280;3632;42.724;23.298;2024-01-11T08:40:06;96069.16;;;-0.75;67.35
7182;BME280;3632;42.724;23.298;2024-01-11T08:42:36;96162.97;;;-0.55;66.20
7182;BME280;3632;42.724;23.298;2024-01-11T08:45:04;96126.63;;;-0.32;65.71
7182;BME280;3632;42.724;23.298;2024-01-11T08:47:32;95456.44;;;-3.79;64.18
7182;BME280;3632;42.724;23.298;2024-01-11T08:49:59;96140.97;;;0.97;61.87
7182;BME280;3632;42.724;23.298;2024-01-11T08:52:26;96132.25;;;1.39;60.70
7182;BME280;3632;42.724;23.298;2024-01-11T08:54:53;96126.13;;;1.48;60.09
7182;BME280;3632;42.724;23.298;2024-01-11T08:57:20;96119.97;;;1.28;60.71
7182;BME280;3632;42.724;23.298;2024-01-11T08:59:48;96123.41;;;1.54;60.01
7182;BME280;3632;42.724;23.298;2024-01-11T09:02:15;95871.56;;;-0.80;58.91
7182;BME280;3632;42.724;23.298;2024-01-11T09:04:42;96119.63;;;1.41;58.52
7182;BME280;3632;42.724;23.298;2024-01-11T09:07:08;96105.22;;;2.01;58.41
7182;BME280;3632;42.724;23.298;2024-01-11T09:09:35;96109.78;;;1.89;58.01
7182;BME280;3632;42.724;23.298;2024-01-11T09:12:02;96102.63;;;1.76;58.79
7182;BME280;3632;42.724;23.298;2024-01-11T09:14:29;96099.22;;;2.05;58.57
7182;BME280;3632;42.724;23.298;2024-01-11T09:16:58;95741.75;;;0.25;57.97
7182;BME280;3632;42.724;23.298;2024-01-11T09:19:24;96119.50;;;1.45;56.91
7182;BME280;3632;42.724;23.298;2024-01-11T09:21:51;96088.56;;;2.23;57.34
7182;BME280;3632;42.724;23.298;2024-01-11T09:24:18;96083.38;;;2.53;56.33
7182;BME280;3632;42.724;23.298;2024-01-11T09:26:45;95881.69;;;1.95;54.35
7182;BME280;3632;42.724;23.298;2024-01-11T09:29:11;96030.59;;;3.43;52.90
7182;BME280;3632;42.724;23.298;2024-01-11T09:31:38;96070.97;;;3.63;52.41
7182;BME280;3632;42.724;23.298;2024-01-11T09:34:06;96068.44;;;2.96;52.53
7182;BME280;3632;42.724;23.298;2024-01-11T09:36:33;95814.09;;;1.15;52.67
7182;BME280;3632;42.724;23.298;2024-01-11T09:39:04;96085.06;;;3.00;53.00
7182;BME280;3632;42.724;23.298;2024-01-11T09:41:31;96049.94;;;3.64;53.92
7182;BME280;3632;42.724;23.298;2024-01-11T09:44:00;95519.06;;;1.28;51.17
7182;BME280;3632;42.724;23.298;2024-01-11T09:46:27;95787.31;;;3.15;49.37
7182;BME280;3632;42.724;23.298;2024-01-11T09:48:55;95950.09;;;5.14;49.14
7182;BME280;3632;42.724;23.298;2024-01-11T09:51:25;96015.91;;;6.19;48.08
7182;BME280;3632;42.724;23.298;2024-01-11T09:53:54;95950.34;;;5.63;46.84
7182;BME280;3632;42.724;23.298;2024-01-11T09:56:21;95845.44;;;4.48;48.26
7182;BME280;3632;42.724;23.298;2024-01-11T09:58:50;95905.91;;;5.57;48.09
7182;BME280;3632;42.724;23.298;2024-01-11T10:01:17;96005.84;;;6.17;46.39
7182;BME280;3632;42.724;23.298;2024-01-11T10:03:44;95901.22;;;5.84;46.23
7182;BME280;3632;42.724;23.298;2024-01-11T10:06:11;96030.47;;;6.48;46.36
7182;BME280;3632;42.724;23.298;2024-01-11T10:08:40;96000.47;;;6.73;46.63
7182;BME280;3632;42.724;23.298;2024-01-11T10:11:07;95561.00;;;3.98;45.97
7182;BME280;3632;42.724;23.298;2024-01-11T10:13:34;95980.66;;;7.28;45.16
7182;BME280;3632;42.724;23.298;2024-01-11T10:16:06;96006.22;;;8.01;43.64
7182;BME280;3632;42.724;23.298;2024-01-11T10:18:34;95966.94;;;8.36;43.27
7182;BME280;3632;42.724;23.298;2024-01-11T10:21:02;95856.81;;;7.80;42.58
7182;BME280;3632;42.724;23.298;2024-01-11T10:23:29;95872.50;;;7.57;43.69
7182;BME280;3632;42.724;23.298;2024-01-11T10:25:58;95849.25;;;7.21;43.20
7182;BME280;3632;42.724;23.298;2024-01-11T10:28:25;95941.69;;;8.90;41.71
7182;BME280;3632;42.724;23.298;2024-01-11T10:30:54;95945.81;;;8.50;42.32
7182;BME280;3632;42.724;23.298;2024-01-11T10:33:21;95881.66;;;8.32;42.36
7182;BME280;3632;42.724;23.298;2024-01-11T10:35:48;95933.84;;;9.34;41.57
7182;BME280;3632;42.724;23.298;2024-01-11T10:38:15;95929.09;;;9.94;40.29
7182;BME280;3632;42.724;23.298;2024-01-11T10:40:43;95883.88;;;9.85;39.94
7182;BME280;3632;42.724;23.298;2024-01-11T10:43:12;95746.53;;;9.83;39.36
7182;BME280;3632;42.724;23.298;2024-01-11T10:45:42;95903.63;;;11.06;38.69
7182;BME280;3632;42.724;23.298;2024-01-11T10:48:14;95899.22;;;11.08;38.33
7182;BME280;3632;42.724;23.298;2024-01-11T10:50:42;95898.31;;;11.09;38.54
7182;BME280;3632;42.724;23.298;2024-01-11T10:53:20;95893.50;;;11.41;37.32
7182;BME280;3632;42.724;23.298;2024-01-11T10:55:53;95774.31;;;10.72;37.55
7182;BME280;3632;42.724;23.298;2024-01-11T10:58:23;95881.72;;;12.86;36.52
7182;BME280;3632;42.724;23.298;2024-01-11T11:00:53;95868.03;;;13.62;34.50
7182;BME280;3632;42.724;23.298;2024-01-11T11:03:22;95783.31;;;15.52;31.74
7182;BME280;3632;42.724;23.298;2024-01-11T11:05:50;95792.28;;;17.04;29.75
7182;BME280;3632;42.724;23.298;2024-01-11T11:08:22;95810.69;;;17.88;29.07
7182;BME280;3632;42.724;23.298;2024-01-11T11:10:51;95827.91;;;18.73;28.82
7182;BME280;3632;42.724;23.298;2024-01-11T11:13:18;95691.69;;;18.58;27.90
7182;BME280;3632;42.724;23.298;2024-01-11T11:15:47;95815.16;;;19.70;27.31
7182;BME280;3632;42.724;23.298;2024-01-11T11:18:14;95669.94;;;18.11;28.26
7182;BME280;3632;42.724;23.298;2024-01-11T11:20:43;95803.97;;;20.10;26.77
7182;BME280;3632;42.724;23.298;2024-01-11T11:23:11;95793.69;;;19.77;26.52
7182;BME280;3632;42.724;23.298;2024-01-11T11:25:40;95829.50;;;18.65;27.97
7182;BME280;3632;42.724;23.298;2024-01-11T11:28:07;95437.16;;;16.33;27.78
7182;BME280;3632;42.724;23.298;2024-01-11T11:30:37;95850.94;;;17.80;28.28
7182;BME280;3632;42.724;23.298;2024-01-11T11:33:10;95778.75;;;18.98;28.06
7182;BME280;3632;42.724;23.298;2024-01-11T11:35:37;95759.22;;;19.85;26.75
7182;BME280;3632;42.724;23.298;2024-01-11T11:38:05;95512.56;;;18.84;25.87
7182;BME280;3632;42.724;23.298;2024-01-11T11:40:32;95755.88;;;20.93;25.65
7182;BME280;3632;42.724;23.298;2024-01-11T11:43:02;95749.28;;;20.13;26.15
7182;BME280;3632;42.724;23.298;2024-01-11T11:45:30;95742.94;;;20.23;26.87
7182;BME280;3632;42.724;23.298;2024-01-11T11:47:58;95739.81;;;20.67;26.00
7182;BME280;3632;42.724;23.298;2024-01-11T11:50:26;95710.84;;;21.39;25.76
7182;BME280;3632;42.724;23.298;2024-01-11T11:52:54;95733.41;;;22.06;24.90
7182;BME280;3632;42.724;23.298;2024-01-11T11:55:22;95728.56;;;22.03;24.88
7182;BME280;3632;42.724;23.298;2024-01-11T11:57:50;95687.44;;;22.21;24.83
7182;BME280;3632;42.724;23.298;2024-01-11T12:00:19;95718.94;;;22.32;24.98
7182;BME280;3632;42.724;23.298;2024-01-11T12:02:46;95711.34;;;21.72;25.97
7182;BME280;3632;42.724;23.298;2024-01-11T12:05:14;95715.31;;;19.44;27.76
7182;BME280;3632;42.724;23.298;2024-01-11T12:07:42;95705.75;;;21.46;25.92
7182;BME280;3632;42.724;23.298;2024-01-11T12:10:09;95692.28;;;21.05;26.56
7182;BME280;3632;42.724;23.298;2024-01-11T12:12:36;95612.19;;;21.18;25.75
7182;BME280;3632;42.724;23.298;2024-01-11T12:15:04;95659.56;;;21.27;25.96
7182;BME280;3632;42.724;23.298;2024-01-11T12:17:31;95674.72;;;21.82;26.27
7182;BME280;3632;42.724;23.298;2024-01-11T12:19:58;95670.16;;;22.64;25.15
7182;BME280;3632;42.724;23.298;2024-01-11T12:22:24;95612.53;;;22.03;25.38
7182;BME280;3632;42.724;23.298;2024-01-11T12:24:53;95671.75;;;21.93;26.08
7182;BME280;3632;42.724;23.298;2024-01-11T12:27:19;95667.97;;;22.46;25.05
7182;BME280;3632;42.724;23.298;2024-01-11T12:29:47;95658.56;;;22.81;24.79
7182;BME280;3632;42.724;23.298;2024-01-11T12:32:14;95623.91;;;22.38;24.97
7182;BME280;3632;42.724;23.298;2024-01-11T12:34:43;95668.28;;;22.72;25.34
7182;BME280;3632;42.724;23.298;2024-01-11T12:37:10;95660.50;;;21.49;26.41
7182;BME280;3632;42.724;23.298;2024-01-11T12:39:37;95568.09;;;21.18;25.40
7182;BME280;3632;42.724;23.298;2024-01-11T12:42:06;95678.69;;;21.78;25.29
7182;BME280;3632;42.724;23.298;2024-01-11T12:44:34;95561.25;;;22.05;24.90
7182;BME280;3632;42.724;23.298;2024-01-11T12:47:03;95634.19;;;22.46;24.38
7182;BME280;3632;42.724;23.298;2024-01-11T12:49:31;95590.78;;;22.04;24.97
7182;BME280;3632;42.724;23.298;2024-01-11T12:51:58;95637.09;;;22.01;24.88
7182;BME280;3632;42.724;23.298;2024-01-11T12:54:25;95628.72;;;21.91;25.31
7182;BME280;3632;42.724;23.298;2024-01-11T12:56:52;95605.94;;;20.90;25.65
7182;BME280;3632;42.724;23.298;2024-01-11T12:59:25;95623.56;;;20.94;25.82
7182;BME280;3632;42.724;23.298;2024-01-11T13:01:52;95585.03;;;20.31;26.38
7182;BME280;3632;42.724;23.298;2024-01-11T13:04:18;95634.22;;;21.37;26.08
7182;BME280;3632;42.724;23.298;2024-01-11T13:06:46;95587.97;;;21.55;25.73
7182;BME280;3632;42.724;23.298;2024-01-11T13:09:12;95604.78;;;22.24;25.34
7182;BME280;3632;42.724;23.298;2024-01-11T13:11:39;95540.59;;;21.82;24.81
7182;BME280;3632;42.724;23.298;2024-01-11T13:14:06;95602.66;;;21.11;25.64